Time;durP1;ratioP1;P1;durP2;ratioP2;P2;SDS_P1;SDS_P2;PMS_P1;PMS_P2;Temp;Humidity;BMP_temperature;BMP_pressure;BME280_temperature;BME280_humidity;BME280_pressure;Samples;Min_cycle;Max_cycle;Signal;HPM_P1;HPM_P2
2023/12/10 00:00:49;;;;;;;13.97;8.50;;;1.70;99.90;;;;;;7859382;28;20211;-86
2023/12/10 00:04:36;;;;;;;14.93;8.23;;;1.70;99.90;;;;;;7875839;28;20216;-88
2023/12/10 00:08:21;;;;;;;12.77;7.83;;;1.70;99.90;;;;;;7874725;28;20193;-87
2023/12/10 00:12:07;;;;;;;13.00;7.73;;;1.60;99.90;;;;;;7876667;28;20323;-86
2023/12/10 00:15:53;;;;;;;14.87;8.43;;;1.60;99.90;;;;;;7854866;28;20176;-87
2023/12/10 00:19:38;;;;;;;14.77;8.37;;;1.60;99.90;;;;;;7858279;28;20747;-87
2023/12/10 00:23:24;;;;;;;11.97;7.63;;;1.60;99.90;;;;;;7857588;28;20248;-88
2023/12/10 00:27:10;;;;;;;13.77;8.13;;;1.60;99.90;;;;;;7873673;28;20199;-87
2023/12/10 00:30:56;;;;;;;13.40;8.13;;;1.60;99.90;;;;;;7877528;28;20215;-88
2023/12/10 00:34:41;;;;;;;13.63;7.00;;;1.60;99.90;;;;;;7870795;28;20213;-86
2023/12/10 00:38:27;;;;;;;14.03;7.40;;;1.60;99.90;;;;;;7873151;28;20188;-87
2023/12/10 00:42:13;;;;;;;11.83;7.23;;;1.50;99.90;;;;;;7875079;28;20193;-87
2023/12/10 00:45:58;;;;;;;11.23;6.67;;;1.50;99.90;;;;;;7859672;28;20182;-89
2023/12/10 00:49:44;;;;;;;12.43;6.83;;;1.50;99.90;;;;;;7895597;28;20185;-86
2023/12/10 00:53:30;;;;;;;10.83;6.53;;;1.60;99.90;;;;;;7893799;28;20595;-87
2023/12/10 00:57:15;;;;;;;10.97;6.37;;;1.50;99.90;;;;;;7845203;28;20209;-87
2023/12/10 01:01:01;;;;;;;9.97;6.00;;;1.50;99.90;;;;;;7889299;28;20185;-87
2023/12/10 01:04:47;;;;;;;9.70;5.77;;;1.50;99.90;;;;;;7857492;28;20239;-87
2023/12/10 01:08:32;;;;;;;9.50;5.47;;;1.40;99.90;;;;;;7873622;28;20185;-87
2023/12/10 01:12:18;;;;;;;9.70;5.70;;;1.40;99.90;;;;;;7873301;28;20288;-88
2023/12/10 01:16:04;;;;;;;8.77;5.27;;;1.40;99.90;;;;;;7855350;28;20258;-88
2023/12/10 01:19:50;;;;;;;8.73;5.37;;;1.40;99.90;;;;;;7889263;28;20182;-87
2023/12/10 01:23:37;;;;;;;8.27;5.40;;;1.50;99.90;;;;;;7865421;28;20694;-88
2023/12/10 01:27:23;;;;;;;8.60;5.50;;;1.30;99.90;;;;;;7854877;28;20268;-87
2023/12/10 01:31:08;;;;;;;7.73;4.80;;;1.40;99.90;;;;;;7855290;28;20205;-89
2023/12/10 01:34:54;;;;;;;7.47;4.57;;;1.40;99.90;;;;;;7853126;28;20201;-88
2023/12/10 01:38:40;;;;;;;8.87;5.07;;;1.40;99.90;;;;;;7889806;28;20643;-88
2023/12/10 01:42:25;;;;;;;7.57;5.07;;;1.40;99.90;;;;;;7870772;28;20212;-87
2023/12/10 01:46:11;;;;;;;6.40;4.23;;;1.40;99.90;;;;;;7854144;28;20187;-87
2023/12/10 01:49:57;;;;;;;5.67;3.80;;;1.40;99.90;;;;;;7853551;28;20181;-87
2023/12/10 01:53:43;;;;;;;5.27;3.67;;;1.40;99.90;;;;;;7871525;28;20259;-88
2023/12/10 01:57:32;;;;;;;4.87;3.53;;;1.30;99.90;;;;;;7869899;28;20635;-89
2023/12/10 02:01:18;;;;;;;5.37;3.63;;;1.30;99.90;;;;;;7867979;28;20177;-88
2023/12/10 02:05:08;;;;;;;6.23;4.20;;;1.40;99.90;;;;;;7850189;28;20576;-88
2023/12/10 02:08:53;;;;;;;5.40;3.67;;;1.30;99.90;;;;;;7853070;28;20659;-87
2023/12/10 02:12:39;;;;;;;5.63;3.47;;;1.40;99.90;;;;;;7868430;28;20648;-88
2023/12/10 02:16:25;;;;;;;5.73;3.80;;;1.30;99.90;;;;;;7870134;28;20185;-87
2023/12/10 02:20:14;;;;;;;4.40;3.10;;;1.40;99.90;;;;;;7855097;28;20583;-86
2023/12/10 02:24:01;;;;;;;4.27;3.13;;;1.30;99.90;;;;;;7873035;28;20866;-87
2023/12/10 02:27:48;;;;;;;6.60;3.77;;;1.30;99.90;;;;;;7858068;28;20635;-87
2023/12/10 02:31:33;;;;;;;4.27;3.07;;;1.30;99.90;;;;;;7868180;28;20205;-86
2023/12/10 02:35:19;;;;;;;5.30;3.07;;;1.30;99.90;;;;;;7855014;28;20208;-87
2023/12/10 02:39:06;;;;;;;4.60;3.10;;;1.30;99.90;;;;;;7873839;28;20173;-86
2023/12/10 02:42:51;;;;;;;4.73;3.10;;;1.30;99.90;;;;;;7873425;28;20193;-86
2023/12/10 02:46:37;;;;;;;4.70;3.50;;;1.30;99.90;;;;;;7865293;28;20263;-87
2023/12/10 02:50:23;;;;;;;4.40;2.60;;;1.30;99.90;;;;;;7854987;28;20623;-87
2023/12/10 02:54:08;;;;;;;5.17;2.90;;;1.30;99.90;;;;;;7872654;28;20201;-88
2023/12/10 02:57:54;;;;;;;3.13;2.50;;;1.30;99.90;;;;;;7888036;28;20265;-87
2023/12/10 03:01:40;;;;;;;3.83;2.70;;;1.30;99.90;;;;;;7855429;28;20239;-87
2023/12/10 03:05:25;;;;;;;3.53;2.60;;;1.20;99.90;;;;;;7853172;28;20268;-87
2023/12/10 03:09:11;;;;;;;4.27;2.60;;;1.20;99.90;;;;;;7871056;28;20181;-87
2023/12/10 03:12:57;;;;;;;5.17;2.93;;;1.30;99.90;;;;;;7865280;28;20292;-87
2023/12/10 03:16:42;;;;;;;3.53;2.07;;;1.30;99.90;;;;;;7853489;22;20635;-88
2023/12/10 03:20:28;;;;;;;3.47;2.10;;;1.30;99.90;;;;;;7799425;28;20228;-87
2023/12/10 03:24:14;;;;;;;2.30;1.90;;;1.30;99.90;;;;;;7791969;28;20186;-88
2023/12/10 03:27:59;;;;;;;2.43;1.80;;;1.40;99.90;;;;;;7807325;28;20206;-87
2023/12/10 03:31:45;;;;;;;3.43;2.00;;;1.40;99.90;;;;;;7810574;28;20206;-88
2023/12/10 03:35:32;;;;;;;2.40;1.73;;;1.50;99.90;;;;;;7809007;28;20194;-88
2023/12/10 03:39:17;;;;;;;2.73;1.80;;;1.60;99.90;;;;;;7801825;28;20190;-88
2023/12/10 03:43:03;;;;;;;2.30;1.43;;;1.70;99.90;;;;;;7814733;28;20206;-88
2023/12/10 03:46:48;;;;;;;2.07;1.30;;;1.80;99.90;;;;;;7817573;28;20204;-88
2023/12/10 03:50:34;;;;;;;2.60;1.40;;;2.00;99.90;;;;;;7804233;28;20182;-89
2023/12/10 03:54:20;;;;;;;2.23;1.60;;;2.10;99.90;;;;;;7803428;28;20217;-86
2023/12/10 03:58:05;;;;;;;3.17;1.60;;;2.10;99.90;;;;;;7812352;28;20224;-88
2023/12/10 04:01:51;;;;;;;1.93;1.40;;;2.10;99.90;;;;;;7804071;28;20817;-87
2023/12/10 04:05:37;;;;;;;2.67;1.30;;;2.10;99.90;;;;;;7817539;28;20199;-87
2023/12/10 04:09:22;;;;;;;3.80;1.70;;;2.10;99.90;;;;;;7839764;28;20187;-88
2023/12/10 04:13:08;;;;;;;2.53;1.40;;;2.20;99.90;;;;;;7806549;28;20260;-87
2023/12/10 04:16:54;;;;;;;2.23;1.20;;;2.20;99.90;;;;;;7804641;28;20687;-88
2023/12/10 04:20:42;;;;;;;1.77;1.53;;;2.20;99.90;;;;;;7803990;28;20790;-88
2023/12/10 04:24:28;;;;;;;2.73;1.40;;;2.30;99.90;;;;;;7804487;28;20175;-88
2023/12/10 04:28:14;;;;;;;3.10;1.57;;;2.30;99.90;;;;;;7803912;28;20206;-88
2023/12/10 04:32:00;;;;;;;2.70;1.50;;;2.40;99.90;;;;;;7801628;28;20286;-88
2023/12/10 04:35:45;;;;;;;2.47;1.60;;;2.40;99.90;;;;;;7805878;28;20568;-88
2023/12/10 04:39:31;;;;;;;2.70;1.70;;;2.50;99.90;;;;;;7800055;28;20183;-88
2023/12/10 04:43:16;;;;;;;3.47;1.70;;;2.60;99.90;;;;;;7809376;28;20197;-88
2023/12/10 04:47:02;;;;;;;3.27;1.60;;;2.70;99.90;;;;;;7799021;28;20288;-89
2023/12/10 04:50:48;;;;;;;3.47;1.90;;;2.80;99.90;;;;;;7801718;28;20207;-89
2023/12/10 04:54:34;;;;;;;5.33;1.80;;;2.80;99.90;;;;;;7808199;28;20179;-88
2023/12/10 04:58:19;;;;;;;6.23;2.03;;;2.90;99.90;;;;;;7808639;28;20194;-87
2023/12/10 05:02:05;;;;;;;6.23;2.00;;;3.00;99.90;;;;;;7813055;28;20436;-87
2023/12/10 05:05:51;;;;;;;3.37;1.77;;;3.00;99.90;;;;;;7810564;28;20777;-87
2023/12/10 05:09:36;;;;;;;4.70;1.87;;;3.10;99.90;;;;;;7808384;28;20231;-87
2023/12/10 05:13:22;;;;;;;5.97;1.90;;;3.10;99.90;;;;;;7804548;28;20213;-87
2023/12/10 05:17:08;;;;;;;4.53;2.10;;;3.20;99.90;;;;;;7798594;28;20217;-88
2023/12/10 05:20:53;;;;;;;5.80;2.10;;;3.20;99.90;;;;;;7807716;28;20186;-87
2023/12/10 05:24:40;;;;;;;3.10;1.73;;;3.20;99.90;;;;;;7807084;28;20297;-87
2023/12/10 05:28:26;;;;;;;5.13;1.90;;;3.20;99.90;;;;;;7807491;28;20245;-86
2023/12/10 05:32:11;;;;;;;5.63;1.67;;;3.20;99.90;;;;;;7807674;28;20202;-88
2023/12/10 05:35:58;;;;;;;7.23;2.00;;;3.30;99.90;;;;;;7806502;28;20202;-87
2023/12/10 05:39:43;;;;;;;5.37;1.87;;;3.30;99.90;;;;;;7776420;28;20182;-87
2023/12/10 05:43:29;;;;;;;7.83;2.40;;;3.30;99.90;;;;;;7791369;28;20175;-87
2023/12/10 05:47:15;;;;;;;6.70;1.73;;;3.40;99.90;;;;;;7805184;28;20209;-87
2023/12/10 05:51:02;;;;;;;9.27;1.90;;;3.50;99.90;;;;;;7807121;28;20679;-87
2023/12/10 05:54:47;;;;;;;10.37;2.13;;;3.50;99.90;;;;;;7796681;28;20172;-88
2023/12/10 05:58:33;;;;;;;7.83;2.10;;;3.60;99.90;;;;;;7793063;28;20953;-88
2023/12/10 06:02:23;;;;;;;6.13;2.00;;;3.60;99.90;;;;;;7806658;28;20182;-87
2023/12/10 06:06:09;;;;;;;4.90;1.90;;;3.60;99.90;;;;;;7801426;28;20195;-88
2023/12/10 06:09:55;;;;;;;3.90;1.63;;;3.70;99.90;;;;;;7814629;28;20274;-87
2023/12/10 06:13:40;;;;;;;7.67;1.90;;;3.60;99.90;;;;;;7844559;28;20214;-87
2023/12/10 06:17:26;;;;;;;10.17;2.30;;;3.60;99.90;;;;;;7807404;28;20703;-88
2023/12/10 06:21:11;;;;;;;12.67;2.10;;;3.60;99.90;;;;;;7801654;28;20305;-87
2023/12/10 06:24:57;;;;;;;8.63;1.77;;;3.70;99.90;;;;;;7803753;28;20182;-87
2023/12/10 06:28:44;;;;;;;11.83;2.10;;;3.70;99.90;;;;;;7798753;28;20540;-88
2023/12/10 06:32:29;;;;;;;10.30;2.40;;;3.70;99.90;;;;;;7803205;28;20205;-88
2023/12/10 06:36:15;;;;;;;11.23;2.00;;;3.70;99.90;;;;;;7803032;28;20222;-87
2023/12/10 06:40:01;;;;;;;17.27;3.50;;;3.80;99.90;;;;;;7805170;28;20881;-88
2023/12/10 06:43:46;;;;;;;6.93;1.80;;;3.90;99.90;;;;;;7804791;28;20194;-88
2023/12/10 06:47:33;;;;;;;11.53;2.17;;;3.90;99.90;;;;;;7804610;28;20211;-88
2023/12/10 06:51:18;;;;;;;10.17;3.03;;;3.90;99.90;;;;;;7805493;28;20277;-88
2023/12/10 06:55:04;;;;;;;9.20;2.90;;;3.90;99.90;;;;;;7803521;28;20649;-88
2023/12/10 06:58:50;;;;;;;9.90;2.33;;;3.90;99.90;;;;;;7804872;28;20194;-88
2023/12/10 07:02:36;;;;;;;13.77;2.53;;;3.90;99.90;;;;;;7804669;28;20273;-88
2023/12/10 07:06:21;;;;;;;8.80;1.87;;;3.80;99.90;;;;;;7805377;28;20210;-89
2023/12/10 07:10:07;;;;;;;7.97;2.17;;;3.80;99.90;;;;;;7796459;28;20194;-88
2023/12/10 07:13:53;;;;;;;13.63;2.20;;;3.90;99.90;;;;;;7797534;28;20229;-88
2023/12/10 07:17:39;;;;;;;11.30;2.73;;;3.90;99.90;;;;;;7804759;28;20767;-88
2023/12/10 07:21:24;;;;;;;12.10;2.43;;;3.80;99.90;;;;;;7804946;28;20558;-88
2023/12/10 07:25:10;;;;;;;10.13;2.13;;;3.90;99.90;;;;;;7796383;28;20203;-88
2023/12/10 07:28:57;;;;;;;15.00;2.37;;;3.90;99.90;;;;;;7811737;28;20236;-88
2023/12/10 07:32:43;;;;;;;13.33;2.23;;;3.90;99.90;;;;;;7787873;28;20205;-88
2023/12/10 07:36:28;;;;;;;20.07;3.63;;;3.90;99.90;;;;;;7795836;28;20202;-88
2023/12/10 07:40:14;;;;;;;13.30;2.70;;;4.00;99.90;;;;;;7803551;28;20190;-88
2023/12/10 07:44:00;;;;;;;8.33;3.23;;;4.00;99.90;;;;;;7801880;28;20192;-87
2023/12/10 07:47:45;;;;;;;14.30;3.27;;;4.00;99.90;;;;;;7803905;28;20194;-87
2023/12/10 07:51:31;;;;;;;7.57;2.50;;;4.00;99.90;;;;;;7800641;28;20210;-88
2023/12/10 07:55:17;;;;;;;14.93;2.80;;;4.10;99.90;;;;;;7801376;28;20213;-87
2023/12/10 07:59:02;;;;;;;9.47;2.40;;;4.10;99.90;;;;;;7800057;28;20640;-87
2023/12/10 08:02:48;;;;;;;9.17;2.47;;;4.10;99.90;;;;;;7797251;28;20190;-89
2023/12/10 08:06:34;;;;;;;15.73;2.87;;;4.10;99.90;;;;;;7798654;28;20741;-88
2023/12/10 08:10:20;;;;;;;11.23;2.43;;;4.20;99.90;;;;;;7810241;28;20190;-88
2023/12/10 08:14:05;;;;;;;11.00;2.57;;;4.30;99.90;;;;;;7808533;28;20205;-87
2023/12/10 08:17:51;;;;;;;11.70;3.20;;;4.30;99.90;;;;;;7843326;28;20206;-90
2023/12/10 08:21:37;;;;;;;13.70;3.13;;;4.30;99.90;;;;;;7807342;28;20191;-87
2023/12/10 08:25:22;;;;;;;13.17;2.70;;;4.40;99.90;;;;;;7806521;28;20199;-85
2023/12/10 08:29:08;;;;;;;10.80;2.97;;;4.40;99.90;;;;;;7811422;28;20175;-91
2023/12/10 08:32:54;;;;;;;12.73;2.40;;;4.40;99.90;;;;;;7809519;28;20241;-85
2023/12/10 08:36:40;;;;;;;22.90;3.37;;;4.50;99.90;;;;;;7806020;28;20198;-85
2023/12/10 08:40:25;;;;;;;11.87;2.67;;;4.50;99.90;;;;;;7801832;28;20277;-84
2023/12/10 08:44:11;;;;;;;13.57;3.03;;;4.50;99.90;;;;;;7808786;28;20183;-85
2023/12/10 08:47:57;;;;;;;18.20;2.87;;;4.60;99.90;;;;;;7810128;28;20664;-85
2023/12/10 08:51:42;;;;;;;18.53;3.10;;;4.60;99.90;;;;;;7807088;28;20202;-86
2023/12/10 08:55:28;;;;;;;9.13;2.77;;;4.60;99.90;;;;;;7799310;28;20797;-84
2023/12/10 08:59:14;;;;;;;18.53;3.00;;;4.70;99.90;;;;;;7806714;28;20206;-85
2023/12/10 09:02:59;;;;;;;13.33;3.37;;;4.70;99.90;;;;;;7808884;28;20198;-85
2023/12/10 09:06:45;;;;;;;27.03;6.93;;;4.70;99.90;;;;;;7805964;28;20206;-85
2023/12/10 09:10:31;;;;;;;15.77;3.20;;;4.70;99.90;;;;;;7807982;28;20281;-90
2023/12/10 09:14:18;;;;;;;20.17;3.10;;;4.80;99.90;;;;;;7804439;28;20252;-87
2023/12/10 09:18:03;;;;;;;19.53;2.83;;;4.80;99.90;;;;;;7863819;22;20225;-85
2023/12/10 09:21:49;;;;;;;12.90;2.33;;;4.70;99.90;;;;;;7870953;28;20227;-85
2023/12/10 09:25:35;;;;;;;18.27;3.17;;;4.80;99.90;;;;;;7867650;28;20209;-85
2023/12/10 09:29:21;;;;;;;13.23;2.67;;;4.90;99.90;;;;;;7851682;28;20189;-85
2023/12/10 09:33:07;;;;;;;13.60;2.70;;;4.90;99.90;;;;;;7852399;28;20232;-84
2023/12/10 09:36:52;;;;;;;18.70;3.03;;;4.90;99.90;;;;;;7858380;28;20188;-85
2023/12/10 09:40:38;;;;;;;14.63;2.57;;;5.00;99.90;;;;;;7865646;28;20263;-84
2023/12/10 09:44:24;;;;;;;16.17;2.63;;;5.00;99.90;;;;;;7854145;28;20208;-85
2023/12/10 09:48:09;;;;;;;16.53;2.40;;;5.00;99.90;;;;;;7870030;28;20165;-84
2023/12/10 09:51:55;;;;;;;21.00;4.30;;;5.00;99.90;;;;;;7870048;28;20391;-85
2023/12/10 09:55:41;;;;;;;15.03;2.83;;;5.10;99.90;;;;;;7864816;28;20190;-84
2023/12/10 09:59:27;;;;;;;14.90;2.90;;;5.10;99.90;;;;;;7853474;28;20225;-84
2023/12/10 10:03:12;;;;;;;12.53;3.23;;;5.10;99.90;;;;;;7868171;22;20225;-84
2023/12/10 10:07:06;;;;;;;11.27;2.90;;;5.10;99.90;;;;;;7826152;28;20633;-85
2023/12/10 10:10:52;;;;;;;17.73;2.67;;;5.10;99.90;;;;;;7830110;28;20185;-87
2023/12/10 10:14:53;;;;;;;43.73;18.23;;;5.20;99.90;;;;;;7831004;28;20198;-86
2023/12/10 10:18:43;;;;;;;13.90;4.47;;;5.20;99.90;;;;;;7823647;28;20579;-85
2023/12/10 10:22:30;;;;;;;13.07;5.37;;;5.30;99.90;;;;;;7833033;28;20598;-85
2023/12/10 10:26:18;;;;;;;9.97;2.97;;;5.30;99.90;;;;;;7839919;28;20197;-85
2023/12/10 10:30:04;;;;;;;13.30;2.77;;;5.30;99.90;;;;;;7831244;28;20188;-86
2023/12/10 10:33:50;;;;;;;18.00;3.30;;;5.40;99.90;;;;;;7842070;28;20209;-86
2023/12/10 10:37:36;;;;;;;18.17;5.13;;;5.40;99.90;;;;;;7832752;28;20185;-86
2023/12/10 10:41:25;;;;;;;14.47;3.77;;;5.30;99.90;;;;;;7816553;28;20273;-86
2023/12/10 10:45:10;;;;;;;12.43;3.50;;;5.30;99.90;;;;;;7811482;28;20804;-84
2023/12/10 10:48:57;;;;;;;14.73;3.13;;;5.20;99.90;;;;;;7821764;28;20539;-86
2023/12/10 10:52:43;;;;;;;11.97;2.30;;;5.30;99.90;;;;;;7829943;28;20217;-85
2023/12/10 10:56:30;;;;;;;14.73;2.53;;;5.30;99.90;;;;;;7829158;28;20698;-83
2023/12/10 11:00:19;;;;;;;15.27;2.03;;;5.30;99.90;;;;;;7813056;28;20247;-84
2023/12/10 11:04:04;;;;;;;17.00;2.77;;;5.30;99.90;;;;;;7825560;28;20237;-83
2023/12/10 11:07:50;;;;;;;10.27;2.70;;;5.30;99.90;;;;;;7814386;28;20179;-85
2023/12/10 11:11:40;;;;;;;13.03;2.40;;;5.30;99.90;;;;;;7809404;28;20218;-84
2023/12/10 11:15:30;;;;;;;11.00;2.13;;;5.30;99.90;;;;;;7819301;28;20220;-84
2023/12/10 11:19:17;;;;;;;10.93;2.30;;;5.30;99.90;;;;;;7823872;28;20703;-83
2023/12/10 11:23:08;;;;;;;8.10;1.83;;;5.30;99.90;;;;;;7822330;28;20571;-85
2023/12/10 11:26:54;;;;;;;7.80;1.70;;;5.30;99.90;;;;;;7833348;28;20232;-83
2023/12/10 11:30:40;;;;;;;9.70;1.70;;;5.30;99.90;;;;;;7829615;28;20186;-84
2023/12/10 11:34:26;;;;;;;10.43;1.70;;;5.20;99.90;;;;;;7828434;28;20209;-84
2023/12/10 11:38:12;;;;;;;7.30;2.03;;;5.30;99.90;;;;;;7815240;28;20180;-84
2023/12/10 11:41:57;;;;;;;12.50;2.00;;;5.30;99.90;;;;;;7808877;28;20666;-85
2023/12/10 11:45:43;;;;;;;9.40;2.23;;;5.30;99.90;;;;;;7829139;28;20241;-84
2023/12/10 11:49:30;;;;;;;9.20;2.10;;;5.30;99.90;;;;;;7826313;28;20182;-84
2023/12/10 11:53:17;;;;;;;5.60;2.40;;;5.30;99.90;;;;;;7838972;28;20220;-84
2023/12/10 11:57:03;;;;;;;10.43;3.20;;;5.30;99.90;;;;;;7847317;28;20698;-83
2023/12/10 12:01:01;;;;;;;13.10;5.00;;;5.30;99.90;;;;;;7820017;28;20293;-83
2023/12/10 12:04:50;;;;;;;8.97;3.70;;;5.40;99.90;;;;;;7813588;28;20255;-85
2023/12/10 12:08:37;;;;;;;9.00;2.80;;;5.40;99.90;;;;;;7810723;28;20206;-84
2023/12/10 12:12:23;;;;;;;9.13;3.40;;;5.40;99.90;;;;;;7826841;28;20206;-83
2023/12/10 12:16:08;;;;;;;6.67;2.53;;;5.40;99.90;;;;;;7849172;28;20188;-85
2023/12/10 12:19:54;;;;;;;12.30;2.47;;;5.40;99.90;;;;;;7833895;28;20175;-84
2023/12/10 12:23:40;;;;;;;11.47;2.60;;;5.40;99.90;;;;;;7837907;28;20544;-85
2023/12/10 12:27:25;;;;;;;8.07;2.00;;;5.50;99.90;;;;;;7828527;28;20567;-86
2023/12/10 12:31:26;;;;;;;10.07;2.30;;;5.50;99.90;;;;;;7833324;28;20202;-85
2023/12/10 12:35:12;;;;;;;8.00;2.60;;;5.50;99.90;;;;;;7834111;28;20205;-85
2023/12/10 12:38:57;;;;;;;11.43;2.10;;;5.50;99.90;;;;;;7833128;28;20206;-85
2023/12/10 12:42:43;;;;;;;10.17;1.90;;;5.60;99.90;;;;;;7832784;28;20203;-85
2023/12/10 12:46:31;;;;;;;9.00;1.60;;;5.60;99.90;;;;;;7824358;28;20190;-84
2023/12/10 12:50:18;;;;;;;9.63;1.80;;;5.60;99.90;;;;;;7830366;28;20664;-85
2023/12/10 12:54:06;;;;;;;16.27;2.10;;;5.60;99.90;;;;;;7851032;28;20209;-85
2023/12/10 12:57:51;;;;;;;12.63;2.03;;;5.60;99.90;;;;;;7854001;28;20185;-84
2023/12/10 13:01:38;;;;;;;11.60;2.20;;;5.60;99.90;;;;;;7833806;28;20214;-85
2023/12/10 13:05:24;;;;;;;8.90;2.23;;;5.70;99.90;;;;;;7827820;28;20218;-85
2023/12/10 13:09:10;;;;;;;13.03;2.10;;;5.70;99.90;;;;;;7827617;28;20212;-84
2023/12/10 13:12:56;;;;;;;14.10;2.23;;;5.80;99.90;;;;;;7824681;28;20206;-85
2023/12/10 13:16:43;;;;;;;10.67;2.90;;;5.80;99.90;;;;;;7815533;28;20194;-84
2023/12/10 13:20:29;;;;;;;15.20;2.80;;;5.70;99.90;;;;;;7813802;28;20201;-85
2023/12/10 13:24:15;;;;;;;11.67;3.57;;;5.70;99.90;;;;;;7825459;28;20209;-84
2023/12/10 13:28:02;;;;;;;13.03;3.73;;;5.80;99.90;;;;;;7824946;28;20190;-85
2023/12/10 13:31:47;;;;;;;8.67;2.50;;;5.80;99.90;;;;;;7824892;28;20197;-83
2023/12/10 13:35:33;;;;;;;4.00;1.67;;;5.80;99.90;;;;;;7843924;28;20194;-84
2023/12/10 13:39:20;;;;;;;11.50;2.13;;;5.80;99.90;;;;;;7834460;28;20179;-83
2023/12/10 13:43:06;;;;;;;12.60;2.20;;;5.80;99.90;;;;;;7830622;28;20669;-84
2023/12/10 13:46:51;;;;;;;9.73;2.53;;;5.90;99.90;;;;;;7830665;28;20202;-84
2023/12/10 13:50:37;;;;;;;9.60;2.17;;;5.90;99.90;;;;;;7817521;28;20182;-84
2023/12/10 13:54:23;;;;;;;11.63;2.30;;;6.00;99.90;;;;;;7820347;28;20312;-84
2023/12/10 13:58:08;;;;;;;15.37;2.30;;;6.00;99.90;;;;;;7832172;28;20174;-85
2023/12/10 14:01:54;;;;;;;15.33;2.40;;;6.00;99.90;;;;;;7816028;28;20182;-84
2023/12/10 14:05:41;;;;;;;12.10;2.20;;;6.00;99.90;;;;;;7813711;28;20221;-84
2023/12/10 14:09:26;;;;;;;8.00;1.80;;;6.00;99.90;;;;;;7822175;28;20186;-84
2023/12/10 14:13:13;;;;;;;8.03;2.07;;;6.00;99.90;;;;;;7832412;28;20808;-86
2023/12/10 14:16:59;;;;;;;10.00;2.63;;;6.10;99.90;;;;;;7855821;28;20170;-84
2023/12/10 14:20:44;;;;;;;10.10;2.37;;;6.10;99.90;;;;;;7833733;28;20185;-85
2023/12/10 14:24:30;;;;;;;15.73;2.33;;;6.20;99.90;;;;;;7816673;28;20209;-85
2023/12/10 14:28:16;;;;;;;12.03;2.47;;;6.20;99.90;;;;;;7826042;28;20189;-84
2023/12/10 14:32:02;;;;;;;12.63;1.97;;;6.20;99.90;;;;;;7837800;28;20233;-84
2023/12/10 14:35:47;;;;;;;12.67;2.60;;;6.20;99.90;;;;;;7837653;28;20222;-84
2023/12/10 14:39:35;;;;;;;8.33;1.93;;;6.20;99.90;;;;;;7837314;28;20185;-83
2023/12/10 14:43:20;;;;;;;11.77;2.23;;;6.20;99.90;;;;;;7837381;28;20214;-85
2023/12/10 14:47:06;;;;;;;16.60;2.67;;;6.20;99.90;;;;;;7836697;28;20212;-84
2023/12/10 14:50:52;;;;;;;11.03;3.30;;;6.30;99.90;;;;;;7836896;28;20273;-84
2023/12/10 14:54:39;;;;;;;15.83;2.93;;;6.30;99.90;;;;;;7836792;28;20317;-84
2023/12/10 14:58:24;;;;;;;11.97;3.47;;;6.20;99.90;;;;;;7836907;28;20173;-84
2023/12/10 15:02:10;;;;;;;14.70;2.97;;;6.20;99.90;;;;;;7838020;28;20212;-83
2023/12/10 15:05:56;;;;;;;10.37;2.93;;;6.20;99.90;;;;;;7836703;28;20200;-85
2023/12/10 15:09:45;;;;;;;11.20;2.87;;;6.20;99.90;;;;;;7837261;28;20182;-86
2023/12/10 15:13:31;;;;;;;20.40;2.80;;;6.10;99.90;;;;;;7836592;28;20245;-84
2023/12/10 15:17:16;;;;;;;13.43;3.00;;;6.20;99.90;;;;;;7835475;28;20178;-84
2023/12/10 15:21:02;;;;;;;13.27;2.27;;;6.20;99.90;;;;;;7835774;28;20274;-84
2023/12/10 15:24:49;;;;;;;12.03;3.10;;;6.20;99.90;;;;;;7834938;28;20193;-84
2023/12/10 15:28:35;;;;;;;11.20;2.20;;;6.20;99.90;;;;;;7836131;28;20189;-83
2023/12/10 15:32:21;;;;;;;16.63;5.73;;;6.20;99.90;;;;;;7836115;28;20300;-84
2023/12/10 15:36:10;;;;;;;35.67;15.27;;;6.20;99.90;;;;;;7834813;28;20235;-84
2023/12/10 15:39:56;;;;;;;16.47;3.23;;;6.20;99.90;;;;;;7836163;28;20249;-85
2023/12/10 15:43:42;;;;;;;16.10;3.50;;;6.30;99.90;;;;;;7822130;28;20225;-88
2023/12/10 15:47:28;;;;;;;13.80;3.07;;;6.30;99.90;;;;;;7805106;28;20198;-85
2023/12/10 15:51:15;;;;;;;14.17;2.50;;;6.30;99.90;;;;;;7830050;28;20206;-86
2023/12/10 15:55:01;;;;;;;16.27;3.60;;;6.30;99.90;;;;;;7825735;28;20209;-85
2023/12/10 15:58:47;;;;;;;24.77;10.07;;;6.30;99.90;;;;;;7844823;28;20177;-85
2023/12/10 16:02:32;;;;;;;15.83;3.37;;;6.30;99.90;;;;;;7812529;28;20221;-85
2023/12/10 16:06:18;;;;;;;14.70;2.63;;;6.30;99.90;;;;;;7843537;22;20222;-87
2023/12/10 16:10:04;;;;;;;11.37;2.50;;;6.30;99.90;;;;;;7824101;28;20228;-88
2023/12/10 16:13:50;;;;;;;8.27;2.23;;;6.30;99.90;;;;;;7833244;28;20209;-88
2023/12/10 16:17:36;;;;;;;7.37;2.67;;;6.30;99.90;;;;;;7845436;28;20626;-89
2023/12/10 16:21:23;;;;;;;15.03;3.37;;;6.40;99.90;;;;;;7844854;28;20655;-88
2023/12/10 16:25:10;;;;;;;10.33;3.17;;;6.40;99.90;;;;;;7816223;28;20297;-89
2023/12/10 16:28:56;;;;;;;13.47;2.47;;;6.30;99.90;;;;;;7820768;28;20573;-88
2023/12/10 16:32:42;;;;;;;12.37;2.87;;;6.30;99.90;;;;;;7842356;28;20222;-90
2023/12/10 16:36:27;;;;;;;14.50;2.77;;;6.30;99.90;;;;;;7820937;28;20323;-88
2023/12/10 16:40:16;;;;;;;14.07;2.60;;;6.30;99.90;;;;;;7820470;28;20217;-88
2023/12/10 16:44:02;;;;;;;22.10;4.40;;;6.30;99.90;;;;;;7827372;28;20671;-89
2023/12/10 16:47:48;;;;;;;9.30;2.90;;;6.30;99.90;;;;;;7830641;28;21350;-89
2023/12/10 16:51:33;;;;;;;8.40;2.10;;;6.30;99.90;;;;;;7846894;28;20221;-88
2023/12/10 16:55:19;;;;;;;9.97;2.13;;;6.20;99.90;;;;;;7841260;28;20218;-88
2023/12/10 16:59:05;;;;;;;12.90;2.07;;;6.30;99.90;;;;;;7844272;28;20181;-88
2023/12/10 17:02:50;;;;;;;22.87;2.17;;;6.30;99.90;;;;;;7826187;28;20860;-89
2023/12/10 17:06:36;;;;;;;11.73;2.33;;;6.30;99.90;;;;;;7827939;28;20274;-88
2023/12/10 17:10:24;;;;;;;13.20;2.17;;;6.30;99.90;;;;;;7815415;28;20178;-88
2023/12/10 17:14:09;;;;;;;10.10;2.80;;;6.30;99.90;;;;;;7820033;28;20194;-89
2023/12/10 17:17:55;;;;;;;13.03;2.13;;;6.30;99.90;;;;;;7817388;28;20167;-88
2023/12/10 17:21:41;;;;;;;11.90;2.77;;;6.20;99.90;;;;;;7821451;28;20179;-89
2023/12/10 17:25:26;;;;;;;12.90;2.67;;;6.20;99.90;;;;;;7825388;28;20243;-88
2023/12/10 17:29:12;;;;;;;15.63;2.77;;;6.30;99.90;;;;;;7818876;28;20652;-88
2023/12/10 17:32:58;;;;;;;11.53;2.47;;;6.30;99.90;;;;;;7818672;28;20201;-88
2023/12/10 17:36:43;;;;;;;17.20;3.80;;;6.20;99.90;;;;;;7835627;28;20206;-87
2023/12/10 17:40:29;;;;;;;17.47;3.57;;;6.20;99.90;;;;;;7843339;28;20233;-87
2023/12/10 17:44:16;;;;;;;8.03;2.50;;;6.10;99.90;;;;;;7838411;28;20213;-89
2023/12/10 17:48:05;;;;;;;15.13;3.17;;;6.10;99.90;;;;;;7826574;28;20251;-87
2023/12/10 17:51:52;;;;;;;13.83;2.40;;;6.00;99.90;;;;;;7844631;28;20193;-88
2023/12/10 17:55:38;;;;;;;14.00;3.37;;;6.00;99.90;;;;;;7822289;28;20201;-88
2023/12/10 17:59:23;;;;;;;12.10;2.93;;;6.00;99.90;;;;;;7845680;28;20820;-88
2023/12/10 18:03:09;;;;;;;16.17;3.67;;;6.00;99.90;;;;;;7835684;28;20182;-89
2023/12/10 18:06:55;;;;;;;16.83;4.90;;;5.90;99.90;;;;;;7839357;28;20213;-88
2023/12/10 18:10:40;;;;;;;21.67;4.10;;;5.90;99.90;;;;;;7844232;28;20225;-89
2023/12/10 18:14:26;;;;;;;13.47;3.60;;;5.90;99.90;;;;;;7815069;28;20229;-88
2023/12/10 18:18:12;;;;;;;16.20;3.33;;;5.80;99.90;;;;;;7818776;28;20189;-90
2023/12/10 18:21:58;;;;;;;15.90;3.00;;;5.80;99.90;;;;;;7834968;28;20850;-89
2023/12/10 18:25:43;;;;;;;13.17;3.33;;;5.80;99.90;;;;;;7816969;28;20197;-89
2023/12/10 18:29:29;;;;;;;14.13;3.00;;;5.80;99.90;;;;;;7816240;28;20178;-89
2023/12/10 18:33:15;;;;;;;12.23;3.40;;;5.80;99.90;;;;;;7815113;28;20209;-88
2023/12/10 18:37:01;;;;;;;13.47;4.27;;;5.80;99.90;;;;;;7824234;28;20200;-85
2023/12/10 18:40:47;;;;;;;10.93;3.03;;;5.80;99.90;;;;;;7820601;28;20179;-89
2023/12/10 18:44:34;;;;;;;14.73;2.57;;;5.80;99.90;;;;;;7824014;28;20244;-88
2023/12/10 18:48:20;;;;;;;11.43;2.90;;;5.80;99.90;;;;;;7831514;28;20600;-89
2023/12/10 18:52:06;;;;;;;7.23;2.40;;;5.80;99.90;;;;;;7840143;28;20206;-89
2023/12/10 18:55:52;;;;;;;12.47;2.53;;;5.80;99.90;;;;;;7822638;28;20256;-87
2023/12/10 18:59:38;;;;;;;15.03;2.87;;;5.70;99.90;;;;;;7837122;28;20230;-88
2023/12/10 19:03:26;;;;;;;12.13;2.70;;;5.70;99.90;;;;;;7815164;28;20339;-87
2023/12/10 19:07:12;;;;;;;11.07;2.37;;;5.70;99.90;;;;;;7829587;28;20256;-88
2023/12/10 19:10:57;;;;;;;10.10;2.67;;;5.70;99.90;;;;;;7814038;28;20186;-88
2023/12/10 19:14:43;;;;;;;11.60;3.07;;;5.70;99.90;;;;;;7825355;28;20569;-89
2023/12/10 19:18:29;;;;;;;13.27;3.10;;;5.60;99.90;;;;;;7814269;28;20229;-88
2023/12/10 19:22:15;;;;;;;12.17;3.03;;;5.60;99.90;;;;;;7820928;28;20223;-89
2023/12/10 19:26:02;;;;;;;8.67;2.50;;;5.60;99.90;;;;;;7834368;28;20730;-87
2023/12/10 19:29:47;;;;;;;9.43;2.73;;;5.60;99.90;;;;;;7846687;28;20177;-89
2023/12/10 19:33:33;;;;;;;11.73;2.60;;;5.60;99.90;;;;;;7834773;28;20206;-88
2023/12/10 19:37:19;;;;;;;12.67;2.93;;;5.60;99.90;;;;;;7815846;28;20212;-88
2023/12/10 19:41:05;;;;;;;15.00;2.70;;;5.60;99.90;;;;;;7821554;28;20269;-88